sensor_id;sensor_type;location;lat;lon;timestamp;P1;durP1;ratioP1;P2;durP2;ratioP2
50350;SDS011;36250;48.740;22.174;2023-01-13T00:02:15;141.43;;;78.38;;
50350;SDS011;36250;48.740;22.174;2023-01-13T00:04:41;129.73;;;70.65;;
50350;SDS011;36250;48.740;22.174;2023-01-13T00:07:06;142.60;;;75.47;;
50350;SDS011;36250;48.740;22.174;2023-01-13T00:09:32;122.35;;;68.30;;
50350;SDS011;36250;48.740;22.174;2023-01-13T00:11:57;120.93;;;64.95;;
50350;SDS011;36250;48.740;22.174;2023-01-13T00:14:22;118.88;;;64.00;;
50350;SDS011;36250;48.740;22.174;2023-01-13T00:16:50;127.63;;;69.85;;
50350;SDS011;36250;48.740;22.174;2023-01-13T00:19:15;121.25;;;66.22;;
50350;SDS011;36250;48.740;22.174;2023-01-13T00:21:40;137.43;;;73.85;;
50350;SDS011;36250;48.740;22.174;2023-01-13T00:24:06;143.10;;;75.60;;
50350;SDS011;36250;48.740;22.174;2023-01-13T00:26:31;135.68;;;72.03;;
50350;SDS011;36250;48.740;22.174;2023-01-13T00:29:00;123.50;;;70.78;;
50350;SDS011;36250;48.740;22.174;2023-01-13T00:31:26;137.05;;;75.93;;
50350;SDS011;36250;48.740;22.174;2023-01-13T00:33:54;128.57;;;73.03;;
50350;SDS011;36250;48.740;22.174;2023-01-13T00:36:20;115.55;;;67.57;;
50350;SDS011;36250;48.740;22.174;2023-01-13T00:38:45;115.80;;;67.95;;
50350;SDS011;36250;48.740;22.174;2023-01-13T00:41:12;110.78;;;64.43;;
50350;SDS011;36250;48.740;22.174;2023-01-13T00:43:42;108.35;;;66.97;;
50350;SDS011;36250;48.740;22.174;2023-01-13T00:46:08;115.07;;;68.30;;
50350;SDS011;36250;48.740;22.174;2023-01-13T00:48:35;119.15;;;69.00;;
50350;SDS011;36250;48.740;22.174;2023-01-13T00:51:03;107.47;;;65.80;;
50350;SDS011;36250;48.740;22.174;2023-01-13T00:53:31;109.20;;;65.38;;
50350;SDS011;36250;48.740;22.174;2023-01-13T00:56:05;108.85;;;63.83;;
50350;SDS011;36250;48.740;22.174;2023-01-13T00:58:33;105.85;;;64.78;;
50350;SDS011;36250;48.740;22.174;2023-01-13T01:01:00;109.78;;;61.42;;
50350;SDS011;36250;48.740;22.174;2023-01-13T01:03:27;111.70;;;68.50;;
50350;SDS011;36250;48.740;22.174;2023-01-13T01:05:53;104.80;;;64.10;;
50350;SDS011;36250;48.740;22.174;2023-01-13T01:08:20;117.55;;;69.45;;
50350;SDS011;36250;48.740;22.174;2023-01-13T01:10:45;102.50;;;60.63;;
50350;SDS011;36250;48.740;22.174;2023-01-13T01:13:10;119.90;;;69.35;;
50350;SDS011;36250;48.740;22.174;2023-01-13T01:15:41;111.22;;;63.83;;
50350;SDS011;36250;48.740;22.174;2023-01-13T01:18:07;105.82;;;63.13;;
50350;SDS011;36250;48.740;22.174;2023-01-13T01:20:32;117.80;;;66.68;;
50350;SDS011;36250;48.740;22.174;2023-01-13T01:22:58;115.05;;;65.65;;
50350;SDS011;36250;48.740;22.174;2023-01-13T01:25:23;106.03;;;61.05;;
50350;SDS011;36250;48.740;22.174;2023-01-13T01:27:48;107.50;;;60.67;;
50350;SDS011;36250;48.740;22.174;2023-01-13T01:30:14;101.82;;;61.88;;
50350;SDS011;36250;48.740;22.174;2023-01-13T01:32:40;115.45;;;62.17;;
50350;SDS011;36250;48.740;22.174;2023-01-13T01:35:05;81.72;;;51.88;;
50350;SDS011;36250;48.740;22.174;2023-01-13T01:37:31;89.32;;;53.05;;
50350;SDS011;36250;48.740;22.174;2023-01-13T01:39:56;81.80;;;52.97;;
50350;SDS011;36250;48.740;22.174;2023-01-13T01:42:21;88.88;;;53.42;;
50350;SDS011;36250;48.740;22.174;2023-01-13T01:45:22;81.45;;;51.92;;
50350;SDS011;36250;48.740;22.174;2023-01-13T01:47:51;88.82;;;51.63;;
50350;SDS011;36250;48.740;22.174;2023-01-13T01:50:21;89.70;;;54.25;;
50350;SDS011;36250;48.740;22.174;2023-01-13T01:52:48;87.25;;;51.95;;
50350;SDS011;36250;48.740;22.174;2023-01-13T01:55:19;86.57;;;52.30;;
50350;SDS011;36250;48.740;22.174;2023-01-13T02:00:25;84.28;;;52.28;;
50350;SDS011;36250;48.740;22.174;2023-01-13T02:02:52;86.57;;;51.38;;
50350;SDS011;36250;48.740;22.174;2023-01-13T02:05:18;89.00;;;54.70;;
50350;SDS011;36250;48.740;22.174;2023-01-13T02:07:44;81.57;;;51.35;;
50350;SDS011;36250;48.740;22.174;2023-01-13T02:10:14;84.65;;;53.13;;
50350;SDS011;36250;48.740;22.174;2023-01-13T02:12:43;83.45;;;49.60;;
50350;SDS011;36250;48.740;22.174;2023-01-13T02:15:11;78.95;;;49.58;;
50350;SDS011;36250;48.740;22.174;2023-01-13T02:28:50;79.38;;;47.65;;
50350;SDS011;36250;48.740;22.174;2023-01-13T02:32:39;72.05;;;45.90;;
50350;SDS011;36250;48.740;22.174;2023-01-13T02:37:50;76.32;;;47.80;;
50350;SDS011;36250;48.740;22.174;2023-01-13T02:40:21;84.15;;;50.03;;
50350;SDS011;36250;48.740;22.174;2023-01-13T02:43:00;80.80;;;49.53;;
50350;SDS011;36250;48.740;22.174;2023-01-13T02:45:54;84.72;;;50.58;;
50350;SDS011;36250;48.740;22.174;2023-01-13T02:48:25;93.22;;;54.80;;
50350;SDS011;36250;48.740;22.174;2023-01-13T02:50:59;90.85;;;54.90;;
50350;SDS011;36250;48.740;22.174;2023-01-13T02:53:37;88.57;;;52.75;;
50350;SDS011;36250;48.740;22.174;2023-01-13T02:56:06;91.35;;;53.85;;
50350;SDS011;36250;48.740;22.174;2023-01-13T02:58:34;84.57;;;53.25;;
50350;SDS011;36250;48.740;22.174;2023-01-13T03:01:02;81.95;;;52.10;;
50350;SDS011;36250;48.740;22.174;2023-01-13T03:03:27;82.10;;;51.25;;
50350;SDS011;36250;48.740;22.174;2023-01-13T03:05:54;86.55;;;52.10;;
50350;SDS011;36250;48.740;22.174;2023-01-13T03:11:15;86.75;;;51.53;;
50350;SDS011;36250;48.740;22.174;2023-01-13T03:21:52;92.22;;;55.13;;
50350;SDS011;36250;48.740;22.174;2023-01-13T03:24:29;92.75;;;57.17;;
50350;SDS011;36250;48.740;22.174;2023-01-13T03:27:03;97.05;;;57.53;;
50350;SDS011;36250;48.740;22.174;2023-01-13T03:29:39;109.32;;;61.15;;
50350;SDS011;36250;48.740;22.174;2023-01-13T03:34:54;108.13;;;60.67;;
50350;SDS011;36250;48.740;22.174;2023-01-13T03:37:25;106.03;;;60.40;;
50350;SDS011;36250;48.740;22.174;2023-01-13T03:39:59;106.43;;;62.22;;
50350;SDS011;36250;48.740;22.174;2023-01-13T03:42:29;102.50;;;60.15;;
50350;SDS011;36250;48.740;22.174;2023-01-13T03:44:59;108.35;;;61.65;;
50350;SDS011;36250;48.740;22.174;2023-01-13T03:47:41;103.30;;;61.20;;
50350;SDS011;36250;48.740;22.174;2023-01-13T03:50:19;108.13;;;61.15;;
50350;SDS011;36250;48.740;22.174;2023-01-13T03:55:16;105.00;;;59.33;;
50350;SDS011;36250;48.740;22.174;2023-01-13T03:57:50;104.15;;;60.88;;
50350;SDS011;36250;48.740;22.174;2023-01-13T04:00:46;108.35;;;59.28;;
50350;SDS011;36250;48.740;22.174;2023-01-13T04:03:32;98.80;;;54.72;;
50350;SDS011;36250;48.740;22.174;2023-01-13T04:06:12;105.68;;;57.28;;
50350;SDS011;36250;48.740;22.174;2023-01-13T04:08:43;105.15;;;56.40;;
50350;SDS011;36250;48.740;22.174;2023-01-13T04:11:22;108.35;;;55.50;;
50350;SDS011;36250;48.740;22.174;2023-01-13T04:13:56;104.30;;;51.80;;
50350;SDS011;36250;48.740;22.174;2023-01-13T04:16:23;109.65;;;53.67;;
50350;SDS011;36250;48.740;22.174;2023-01-13T04:18:49;119.65;;;56.35;;
50350;SDS011;36250;48.740;22.174;2023-01-13T04:21:14;119.75;;;58.80;;
50350;SDS011;36250;48.740;22.174;2023-01-13T04:23:40;115.32;;;55.40;;
50350;SDS011;36250;48.740;22.174;2023-01-13T04:26:05;116.50;;;56.13;;
50350;SDS011;36250;48.740;22.174;2023-01-13T04:28:30;128.20;;;60.95;;
50350;SDS011;36250;48.740;22.174;2023-01-13T04:30:57;199.60;;;55.90;;
50350;SDS011;36250;48.740;22.174;2023-01-13T04:33:22;196.57;;;54.80;;
50350;SDS011;36250;48.740;22.174;2023-01-13T04:35:48;197.50;;;52.85;;
50350;SDS011;36250;48.740;22.174;2023-01-13T04:38:14;125.53;;;49.88;;
50350;SDS011;36250;48.740;22.174;2023-01-13T04:40:41;130.45;;;49.58;;
50350;SDS011;36250;48.740;22.174;2023-01-13T04:43:07;130.60;;;47.42;;
50350;SDS011;36250;48.740;22.174;2023-01-13T04:45:33;112.82;;;43.53;;
50350;SDS011;36250;48.740;22.174;2023-01-13T04:47:59;126.03;;;46.00;;
50350;SDS011;36250;48.740;22.174;2023-01-13T04:50:24;129.57;;;42.60;;
50350;SDS011;36250;48.740;22.174;2023-01-13T04:52:50;136.90;;;43.28;;
50350;SDS011;36250;48.740;22.174;2023-01-13T04:55:16;132.60;;;44.38;;
50350;SDS011;36250;48.740;22.174;2023-01-13T04:57:42;158.20;;;48.15;;
50350;SDS011;36250;48.740;22.174;2023-01-13T05:00:08;134.68;;;45.33;;
50350;SDS011;36250;48.740;22.174;2023-01-13T05:02:35;135.75;;;44.55;;
50350;SDS011;36250;48.740;22.174;2023-01-13T05:05:01;141.63;;;45.75;;
50350;SDS011;36250;48.740;22.174;2023-01-13T05:07:26;135.10;;;44.72;;
50350;SDS011;36250;48.740;22.174;2023-01-13T05:09:51;146.40;;;45.75;;
50350;SDS011;36250;48.740;22.174;2023-01-13T05:12:17;147.18;;;45.63;;
50350;SDS011;36250;48.740;22.174;2023-01-13T05:15:00;149.95;;;42.92;;
50350;SDS011;36250;48.740;22.174;2023-01-13T05:17:44;184.20;;;44.90;;
50350;SDS011;36250;48.740;22.174;2023-01-13T05:20:10;142.20;;;43.13;;
50350;SDS011;36250;48.740;22.174;2023-01-13T05:22:36;135.80;;;44.75;;
50350;SDS011;36250;48.740;22.174;2023-01-13T05:25:20;128.93;;;44.65;;
50350;SDS011;36250;48.740;22.174;2023-01-13T05:27:46;131.23;;;42.58;;
50350;SDS011;36250;48.740;22.174;2023-01-13T05:30:12;125.07;;;43.22;;
50350;SDS011;36250;48.740;22.174;2023-01-13T05:32:37;138.52;;;47.13;;
50350;SDS011;36250;48.740;22.174;2023-01-13T05:35:03;131.50;;;50.67;;
50350;SDS011;36250;48.740;22.174;2023-01-13T05:37:29;115.13;;;43.17;;
50350;SDS011;36250;48.740;22.174;2023-01-13T05:39:54;127.25;;;50.03;;
50350;SDS011;36250;48.740;22.174;2023-01-13T05:42:38;123.78;;;44.45;;
50350;SDS011;36250;48.740;22.174;2023-01-13T05:45:22;114.30;;;44.03;;
50350;SDS011;36250;48.740;22.174;2023-01-13T05:47:48;125.95;;;49.55;;
50350;SDS011;36250;48.740;22.174;2023-01-13T05:50:14;128.23;;;49.67;;
50350;SDS011;36250;48.740;22.174;2023-01-13T05:52:40;110.22;;;44.97;;
50350;SDS011;36250;48.740;22.174;2023-01-13T05:55:06;108.50;;;46.05;;
50350;SDS011;36250;48.740;22.174;2023-01-13T05:57:31;121.63;;;46.90;;
50350;SDS011;36250;48.740;22.174;2023-01-13T05:59:57;115.22;;;47.42;;
50350;SDS011;36250;48.740;22.174;2023-01-13T06:02:22;115.13;;;48.03;;
50350;SDS011;36250;48.740;22.174;2023-01-13T06:04:48;133.05;;;50.10;;
50350;SDS011;36250;48.740;22.174;2023-01-13T06:07:14;119.50;;;46.45;;
50350;SDS011;36250;48.740;22.174;2023-01-13T06:09:39;123.75;;;48.25;;
50350;SDS011;36250;48.740;22.174;2023-01-13T06:12:04;114.97;;;47.25;;
50350;SDS011;36250;48.740;22.174;2023-01-13T06:14:30;120.13;;;48.53;;
50350;SDS011;36250;48.740;22.174;2023-01-13T06:17:11;125.45;;;47.22;;
50350;SDS011;36250;48.740;22.174;2023-01-13T06:19:38;120.05;;;49.08;;
50350;SDS011;36250;48.740;22.174;2023-01-13T06:22:12;121.45;;;48.95;;
50350;SDS011;36250;48.740;22.174;2023-01-13T06:24:40;132.68;;;51.83;;
50350;SDS011;36250;48.740;22.174;2023-01-13T06:27:06;135.45;;;53.08;;
50350;SDS011;36250;48.740;22.174;2023-01-13T06:29:33;122.43;;;49.63;;
50350;SDS011;36250;48.740;22.174;2023-01-13T06:32:00;134.73;;;49.83;;
50350;SDS011;36250;48.740;22.174;2023-01-13T06:34:29;145.15;;;52.35;;
50350;SDS011;36250;48.740;22.174;2023-01-13T06:36:56;145.25;;;49.40;;
50350;SDS011;36250;48.740;22.174;2023-01-13T06:39:21;135.93;;;47.40;;
50350;SDS011;36250;48.740;22.174;2023-01-13T06:41:52;139.30;;;47.40;;
50350;SDS011;36250;48.740;22.174;2023-01-13T06:44:36;156.60;;;50.38;;
50350;SDS011;36250;48.740;22.174;2023-01-13T06:47:02;132.75;;;47.35;;
50350;SDS011;36250;48.740;22.174;2023-01-13T06:49:28;149.60;;;50.22;;
50350;SDS011;36250;48.740;22.174;2023-01-13T06:51:54;142.32;;;46.83;;
50350;SDS011;36250;48.740;22.174;2023-01-13T06:54:19;150.70;;;46.95;;
50350;SDS011;36250;48.740;22.174;2023-01-13T06:56:44;134.43;;;46.75;;
50350;SDS011;36250;48.740;22.174;2023-01-13T06:59:10;140.50;;;47.90;;
50350;SDS011;36250;48.740;22.174;2023-01-13T07:01:35;141.98;;;44.95;;
50350;SDS011;36250;48.740;22.174;2023-01-13T07:04:00;138.70;;;43.97;;
50350;SDS011;36250;48.740;22.174;2023-01-13T07:06:26;126.30;;;40.58;;
50350;SDS011;36250;48.740;22.174;2023-01-13T07:08:52;146.77;;;44.75;;
50350;SDS011;36250;48.740;22.174;2023-01-13T07:11:18;137.10;;;45.60;;
50350;SDS011;36250;48.740;22.174;2023-01-13T07:13:43;124.18;;;44.78;;
50350;SDS011;36250;48.740;22.174;2023-01-13T07:16:27;138.55;;;45.90;;
50350;SDS011;36250;48.740;22.174;2023-01-13T07:18:53;132.63;;;46.15;;
50350;SDS011;36250;48.740;22.174;2023-01-13T07:21:19;136.70;;;46.67;;
50350;SDS011;36250;48.740;22.174;2023-01-13T07:23:45;122.20;;;48.72;;
50350;SDS011;36250;48.740;22.174;2023-01-13T07:26:11;117.95;;;46.13;;
50350;SDS011;36250;48.740;22.174;2023-01-13T07:28:37;110.35;;;43.20;;
50350;SDS011;36250;48.740;22.174;2023-01-13T07:31:04;111.22;;;42.63;;
50350;SDS011;36250;48.740;22.174;2023-01-13T07:33:33;111.65;;;39.97;;
50350;SDS011;36250;48.740;22.174;2023-01-13T07:35:59;103.90;;;40.60;;
50350;SDS011;36250;48.740;22.174;2023-01-13T07:38:26;99.82;;;38.15;;
50350;SDS011;36250;48.740;22.174;2023-01-13T07:40:52;106.80;;;39.60;;
50350;SDS011;36250;48.740;22.174;2023-01-13T07:43:17;111.95;;;40.17;;
50350;SDS011;36250;48.740;22.174;2023-01-13T07:45:58;99.13;;;41.78;;
50350;SDS011;36250;48.740;22.174;2023-01-13T07:48:28;97.53;;;40.55;;
50350;SDS011;36250;48.740;22.174;2023-01-13T07:50:55;97.95;;;39.72;;
50350;SDS011;36250;48.740;22.174;2023-01-13T07:53:21;106.65;;;44.50;;
50350;SDS011;36250;48.740;22.174;2023-01-13T07:55:48;124.70;;;45.22;;
50350;SDS011;36250;48.740;22.174;2023-01-13T07:58:14;110.53;;;43.42;;
50350;SDS011;36250;48.740;22.174;2023-01-13T08:00:39;126.35;;;45.88;;
50350;SDS011;36250;48.740;22.174;2023-01-13T08:03:05;112.63;;;44.55;;
50350;SDS011;36250;48.740;22.174;2023-01-13T08:05:30;105.93;;;41.95;;
50350;SDS011;36250;48.740;22.174;2023-01-13T08:07:56;116.53;;;44.83;;
50350;SDS011;36250;48.740;22.174;2023-01-13T08:10:21;91.80;;;41.03;;
50350;SDS011;36250;48.740;22.174;2023-01-13T08:12:47;95.53;;;41.70;;
50350;SDS011;36250;48.740;22.174;2023-01-13T08:15:31;94.32;;;42.15;;
50350;SDS011;36250;48.740;22.174;2023-01-13T08:17:56;116.45;;;48.90;;
50350;SDS011;36250;48.740;22.174;2023-01-13T08:20:23;89.57;;;41.15;;
50350;SDS011;36250;48.740;22.174;2023-01-13T08:22:48;87.43;;;40.10;;
50350;SDS011;36250;48.740;22.174;2023-01-13T08:25:14;73.97;;;36.30;;
50350;SDS011;36250;48.740;22.174;2023-01-13T08:27:39;87.38;;;38.83;;
50350;SDS011;36250;48.740;22.174;2023-01-13T08:30:04;93.57;;;43.83;;
50350;SDS011;36250;48.740;22.174;2023-01-13T08:32:30;79.30;;;38.53;;
50350;SDS011;36250;48.740;22.174;2023-01-13T08:34:56;87.90;;;43.67;;
50350;SDS011;36250;48.740;22.174;2023-01-13T08:37:21;96.72;;;45.08;;
50350;SDS011;36250;48.740;22.174;2023-01-13T08:39:46;80.60;;;36.03;;
50350;SDS011;36250;48.740;22.174;2023-01-13T08:42:12;101.53;;;45.28;;
50350;SDS011;36250;48.740;22.174;2023-01-13T08:44:37;79.20;;;36.53;;
50350;SDS011;36250;48.740;22.174;2023-01-13T08:47:02;83.28;;;36.67;;
50350;SDS011;36250;48.740;22.174;2023-01-13T08:49:28;73.63;;;35.80;;
50350;SDS011;36250;48.740;22.174;2023-01-13T08:51:54;74.50;;;34.03;;
50350;SDS011;36250;48.740;22.174;2023-01-13T08:54:19;77.70;;;33.95;;
50350;SDS011;36250;48.740;22.174;2023-01-13T08:56:44;73.85;;;33.45;;
50350;SDS011;36250;48.740;22.174;2023-01-13T08:59:20;67.78;;;31.85;;
50350;SDS011;36250;48.740;22.174;2023-01-13T09:01:45;62.03;;;30.30;;
50350;SDS011;36250;48.740;22.174;2023-01-13T09:04:13;68.82;;;29.63;;
50350;SDS011;36250;48.740;22.174;2023-01-13T09:06:44;65.03;;;28.88;;
50350;SDS011;36250;48.740;22.174;2023-01-13T09:09:11;69.70;;;29.38;;
50350;SDS011;36250;48.740;22.174;2023-01-13T09:11:38;55.95;;;25.83;;
50350;SDS011;36250;48.740;22.174;2023-01-13T09:14:26;59.15;;;28.70;;
50350;SDS011;36250;48.740;22.174;2023-01-13T09:16:53;58.95;;;27.65;;
50350;SDS011;36250;48.740;22.174;2023-01-13T09:19:18;63.15;;;29.35;;
50350;SDS011;36250;48.740;22.174;2023-01-13T09:21:43;54.45;;;27.42;;
50350;SDS011;36250;48.740;22.174;2023-01-13T09:24:09;60.65;;;27.60;;
50350;SDS011;36250;48.740;22.174;2023-01-13T09:26:35;58.88;;;27.15;;
50350;SDS011;36250;48.740;22.174;2023-01-13T09:29:01;57.17;;;26.20;;
50350;SDS011;36250;48.740;22.174;2023-01-13T09:31:27;57.38;;;27.40;;
50350;SDS011;36250;48.740;22.174;2023-01-13T09:33:52;58.85;;;27.45;;
50350;SDS011;36250;48.740;22.174;2023-01-13T09:36:36;73.70;;;28.98;;
50350;SDS011;36250;48.740;22.174;2023-01-13T09:39:02;60.83;;;26.85;;
50350;SDS011;36250;48.740;22.174;2023-01-13T09:41:28;71.10;;;29.20;;
50350;SDS011;36250;48.740;22.174;2023-01-13T09:44:24;64.82;;;27.77;;
50350;SDS011;36250;48.740;22.174;2023-01-13T09:47:01;56.70;;;27.35;;
50350;SDS011;36250;48.740;22.174;2023-01-13T09:49:37;62.72;;;25.85;;
50350;SDS011;36250;48.740;22.174;2023-01-13T09:52:06;59.05;;;27.38;;
50350;SDS011;36250;48.740;22.174;2023-01-13T09:54:44;53.70;;;27.55;;
50350;SDS011;36250;48.740;22.174;2023-01-13T09:57:14;55.63;;;28.23;;
50350;SDS011;36250;48.740;22.174;2023-01-13T09:59:41;53.70;;;28.38;;
50350;SDS011;36250;48.740;22.174;2023-01-13T10:05:02;54.75;;;29.50;;
50350;SDS011;36250;48.740;22.174;2023-01-13T10:07:28;45.42;;;25.30;;
50350;SDS011;36250;48.740;22.174;2023-01-13T10:09:56;51.75;;;26.13;;
50350;SDS011;36250;48.740;22.174;2023-01-13T10:12:24;46.40;;;26.35;;
50350;SDS011;36250;48.740;22.174;2023-01-13T10:15:13;48.05;;;27.30;;
50350;SDS011;36250;48.740;22.174;2023-01-13T10:17:44;48.33;;;27.17;;
50350;SDS011;36250;48.740;22.174;2023-01-13T10:28:52;44.78;;;25.48;;
50350;SDS011;36250;48.740;22.174;2023-01-13T10:31:19;45.47;;;25.92;;
50350;SDS011;36250;48.740;22.174;2023-01-13T10:33:45;42.47;;;23.77;;
50350;SDS011;36250;48.740;22.174;2023-01-13T10:36:20;44.83;;;27.88;;
50350;SDS011;36250;48.740;22.174;2023-01-13T10:38:47;47.30;;;28.45;;
50350;SDS011;36250;48.740;22.174;2023-01-13T10:43:41;46.45;;;26.35;;
50350;SDS011;36250;48.740;22.174;2023-01-13T10:46:13;47.97;;;26.05;;
50350;SDS011;36250;48.740;22.174;2023-01-13T10:48:43;46.50;;;28.27;;
50350;SDS011;36250;48.740;22.174;2023-01-13T10:51:26;56.15;;;34.60;;
50350;SDS011;36250;48.740;22.174;2023-01-13T10:56:28;52.95;;;33.00;;
50350;SDS011;36250;48.740;22.174;2023-01-13T11:01:38;65.88;;;38.95;;
50350;SDS011;36250;48.740;22.174;2023-01-13T11:06:52;51.40;;;32.58;;
50350;SDS011;36250;48.740;22.174;2023-01-13T11:09:18;47.40;;;28.00;;
50350;SDS011;36250;48.740;22.174;2023-01-13T11:11:46;36.38;;;23.42;;
50350;SDS011;36250;48.740;22.174;2023-01-13T11:14:18;40.92;;;25.27;;
50350;SDS011;36250;48.740;22.174;2023-01-13T11:22:41;36.45;;;23.67;;
50350;SDS011;36250;48.740;22.174;2023-01-13T11:25:29;36.30;;;21.95;;
50350;SDS011;36250;48.740;22.174;2023-01-13T11:36:10;42.60;;;25.40;;
50350;SDS011;36250;48.740;22.174;2023-01-13T11:38:45;41.33;;;26.27;;
50350;SDS011;36250;48.740;22.174;2023-01-13T11:41:21;48.45;;;29.52;;
50350;SDS011;36250;48.740;22.174;2023-01-13T11:43:54;43.00;;;28.02;;
50350;SDS011;36250;48.740;22.174;2023-01-13T11:46:34;41.17;;;25.50;;
50350;SDS011;36250;48.740;22.174;2023-01-13T11:49:00;40.15;;;24.27;;
50350;SDS011;36250;48.740;22.174;2023-01-13T12:05:33;32.92;;;22.73;;
50350;SDS011;36250;48.740;22.174;2023-01-13T12:11:02;27.35;;;18.30;;
50350;SDS011;36250;48.740;22.174;2023-01-13T12:16:43;30.10;;;20.73;;
50350;SDS011;36250;48.740;22.174;2023-01-13T12:19:23;39.60;;;21.73;;
50350;SDS011;36250;48.740;22.174;2023-01-13T12:35:57;32.60;;;20.30;;
50350;SDS011;36250;48.740;22.174;2023-01-13T12:38:47;27.58;;;18.92;;
50350;SDS011;36250;48.740;22.174;2023-01-13T12:44:24;38.33;;;17.75;;
50350;SDS011;36250;48.740;22.174;2023-01-13T12:46:53;32.95;;;19.35;;
50350;SDS011;36250;48.740;22.174;2023-01-13T12:49:21;29.73;;;18.25;;
50350;SDS011;36250;48.740;22.174;2023-01-13T12:56:54;28.38;;;18.55;;
50350;SDS011;36250;48.740;22.174;2023-01-13T13:01:46;37.90;;;20.67;;
50350;SDS011;36250;48.740;22.174;2023-01-13T13:04:17;31.23;;;18.77;;
50350;SDS011;36250;48.740;22.174;2023-01-13T13:07:06;31.63;;;20.60;;
50350;SDS011;36250;48.740;22.174;2023-01-13T13:09:40;29.17;;;17.95;;
50350;SDS011;36250;48.740;22.174;2023-01-13T13:15:22;30.33;;;17.85;;
50350;SDS011;36250;48.740;22.174;2023-01-13T13:23:27;25.02;;;17.05;;
50350;SDS011;36250;48.740;22.174;2023-01-13T13:31:44;29.02;;;18.48;;
50350;SDS011;36250;48.740;22.174;2023-01-13T13:37:27;24.65;;;17.63;;
50350;SDS011;36250;48.740;22.174;2023-01-13T13:40:23;27.42;;;18.08;;
50350;SDS011;36250;48.740;22.174;2023-01-13T13:43:09;28.02;;;17.30;;
50350;SDS011;36250;48.740;22.174;2023-01-13T13:45:55;26.08;;;16.92;;
50350;SDS011;36250;48.740;22.174;2023-01-13T13:48:46;26.23;;;17.40;;
50350;SDS011;36250;48.740;22.174;2023-01-13T13:51:26;21.00;;;15.20;;
50350;SDS011;36250;48.740;22.174;2023-01-13T13:54:00;26.95;;;15.60;;
50350;SDS011;36250;48.740;22.174;2023-01-13T13:56:26;28.85;;;17.25;;
50350;SDS011;36250;48.740;22.174;2023-01-13T13:58:53;26.70;;;17.75;;
50350;SDS011;36250;48.740;22.174;2023-01-13T14:01:37;32.30;;;19.70;;
50350;SDS011;36250;48.740;22.174;2023-01-13T14:04:26;29.58;;;18.35;;
50350;SDS011;36250;48.740;22.174;2023-01-13T14:09:37;31.17;;;17.73;;
50350;SDS011;36250;48.740;22.174;2023-01-13T14:12:05;29.65;;;19.38;;
50350;SDS011;36250;48.740;22.174;2023-01-13T14:14:44;26.05;;;17.10;;
50350;SDS011;36250;48.740;22.174;2023-01-13T14:17:18;25.48;;;17.20;;
50350;SDS011;36250;48.740;22.174;2023-01-13T14:19:53;30.13;;;20.00;;
50350;SDS011;36250;48.740;22.174;2023-01-13T14:22:20;37.10;;;23.63;;
50350;SDS011;36250;48.740;22.174;2023-01-13T14:24:45;35.22;;;22.15;;
50350;SDS011;36250;48.740;22.174;2023-01-13T14:27:19;31.52;;;19.50;;
50350;SDS011;36250;48.740;22.174;2023-01-13T14:29:44;41.40;;;24.33;;
50350;SDS011;36250;48.740;22.174;2023-01-13T14:32:12;41.75;;;24.67;;
50350;SDS011;36250;48.740;22.174;2023-01-13T14:34:42;44.83;;;25.92;;
50350;SDS011;36250;48.740;22.174;2023-01-13T14:37:24;39.28;;;25.88;;
50350;SDS011;36250;48.740;22.174;2023-01-13T14:39:53;43.22;;;26.55;;
50350;SDS011;36250;48.740;22.174;2023-01-13T14:42:19;37.38;;;24.50;;
50350;SDS011;36250;48.740;22.174;2023-01-13T14:44:46;34.63;;;23.83;;
50350;SDS011;36250;48.740;22.174;2023-01-13T14:47:28;47.70;;;30.10;;
50350;SDS011;36250;48.740;22.174;2023-01-13T14:52:36;37.22;;;24.33;;
50350;SDS011;36250;48.740;22.174;2023-01-13T14:55:20;36.58;;;23.45;;
50350;SDS011;36250;48.740;22.174;2023-01-13T14:57:49;35.83;;;23.98;;
50350;SDS011;36250;48.740;22.174;2023-01-13T15:02:40;39.03;;;24.50;;
50350;SDS011;36250;48.740;22.174;2023-01-13T15:10:20;36.67;;;24.58;;
50350;SDS011;36250;48.740;22.174;2023-01-13T15:12:49;48.40;;;30.13;;
50350;SDS011;36250;48.740;22.174;2023-01-13T15:17:47;26.98;;;17.83;;
50350;SDS011;36250;48.740;22.174;2023-01-13T15:20:13;29.92;;;19.75;;
50350;SDS011;36250;48.740;22.174;2023-01-13T15:22:40;30.52;;;19.52;;
50350;SDS011;36250;48.740;22.174;2023-01-13T15:25:05;27.58;;;18.92;;
50350;SDS011;36250;48.740;22.174;2023-01-13T15:27:33;29.00;;;18.60;;
50350;SDS011;36250;48.740;22.174;2023-01-13T15:29:59;34.53;;;19.60;;
50350;SDS011;36250;48.740;22.174;2023-01-13T15:32:24;36.65;;;24.23;;
50350;SDS011;36250;48.740;22.174;2023-01-13T15:34:50;40.20;;;29.17;;
50350;SDS011;36250;48.740;22.174;2023-01-13T15:37:17;42.25;;;27.25;;
50350;SDS011;36250;48.740;22.174;2023-01-13T15:39:43;49.17;;;30.73;;
50350;SDS011;36250;48.740;22.174;2023-01-13T15:42:11;42.90;;;27.73;;
50350;SDS011;36250;48.740;22.174;2023-01-13T15:44:56;38.65;;;23.50;;
50350;SDS011;36250;48.740;22.174;2023-01-13T15:47:41;38.72;;;22.90;;
50350;SDS011;36250;48.740;22.174;2023-01-13T15:50:16;31.30;;;19.80;;
50350;SDS011;36250;48.740;22.174;2023-01-13T15:52:42;29.40;;;18.65;;
50350;SDS011;36250;48.740;22.174;2023-01-13T15:55:08;30.05;;;19.42;;
50350;SDS011;36250;48.740;22.174;2023-01-13T15:57:35;31.77;;;20.23;;
50350;SDS011;36250;48.740;22.174;2023-01-13T16:00:04;36.58;;;20.27;;
50350;SDS011;36250;48.740;22.174;2023-01-13T16:02:37;41.45;;;27.02;;
50350;SDS011;36250;48.740;22.174;2023-01-13T16:05:03;52.28;;;34.08;;
50350;SDS011;36250;48.740;22.174;2023-01-13T16:07:30;41.20;;;28.08;;
50350;SDS011;36250;48.740;22.174;2023-01-13T16:09:55;34.03;;;23.23;;
50350;SDS011;36250;48.740;22.174;2023-01-13T16:12:20;31.23;;;20.88;;
50350;SDS011;36250;48.740;22.174;2023-01-13T16:14:46;27.30;;;20.25;;
50350;SDS011;36250;48.740;22.174;2023-01-13T16:17:13;32.90;;;21.58;;
50350;SDS011;36250;48.740;22.174;2023-01-13T16:19:41;33.78;;;24.35;;
50350;SDS011;36250;48.740;22.174;2023-01-13T16:22:07;35.70;;;24.05;;
50350;SDS011;36250;48.740;22.174;2023-01-13T16:24:33;42.67;;;26.90;;
50350;SDS011;36250;48.740;22.174;2023-01-13T16:26:58;40.42;;;27.75;;
50350;SDS011;36250;48.740;22.174;2023-01-13T16:29:24;45.17;;;28.67;;
50350;SDS011;36250;48.740;22.174;2023-01-13T16:31:49;43.53;;;28.00;;
50350;SDS011;36250;48.740;22.174;2023-01-13T16:34:14;35.67;;;24.38;;
50350;SDS011;36250;48.740;22.174;2023-01-13T16:36:40;37.00;;;24.40;;
50350;SDS011;36250;48.740;22.174;2023-01-13T16:39:05;39.83;;;26.38;;
50350;SDS011;36250;48.740;22.174;2023-01-13T16:41:44;35.88;;;24.00;;
50350;SDS011;36250;48.740;22.174;2023-01-13T16:44:09;38.38;;;24.75;;
50350;SDS011;36250;48.740;22.174;2023-01-13T16:46:35;39.63;;;25.65;;